Nottingham, New Hampshire
Current Conditions -  °F | °C
As of 7:58 PM on Sunday 23 Nov 2014 (Local Time) from KPSM Reporting Station
Rain Showers Rain Showers  
Wind Chill: 48°   Ceiling: 8000
Heat Index: 50°   Visibility: 10mi
Dew Point: 40°   Wind: 6mph
Humidity: 69%   Direction: 160°SSE
Pressure: 30.12"   Gusts: NA
Location:  43.11°N, 71.1°W
Report Text: KPSM 240058Z 16005KT 10SM -SHRA BKN080 OVC120 10/04 A3012 RMK AO2A SLP204 P0000 T00990044
Loading
Personal Weather Stations






























Interactive Weather Map New forecast layout! Learn more

10-Day Weather Forecast

Advertisements
Track Severe Weather on mobile